createdAt,value
2023-02-04T00:02:27.136Z,100677.56
2023-02-04T00:04:54.579Z,100664.47
2023-02-04T00:07:21.894Z,100659.16
2023-02-04T00:09:50.008Z,100673.00
2023-02-04T00:12:18.647Z,100678.31
2023-02-04T00:14:45.893Z,100689.91
2023-02-04T00:17:13.471Z,100711.25
2023-02-04T00:19:40.804Z,100708.59
2023-02-04T00:22:08.646Z,100737.22
2023-02-04T00:24:36.303Z,100744.22
2023-02-04T00:27:03.848Z,100748.06
2023-02-04T00:29:32.586Z,100761.50
2023-02-04T00:32:00.004Z,100767.28
2023-02-04T00:34:27.389Z,100787.19
2023-02-04T00:36:55.757Z,100789.50
2023-02-04T00:39:23.506Z,100793.38
2023-02-04T00:41:50.774Z,100819.25
2023-02-04T00:44:18.058Z,100812.41
2023-02-04T00:46:48.668Z,100819.09
2023-02-04T00:49:15.931Z,100843.69
2023-02-04T00:51:46.312Z,100845.66
2023-02-04T00:54:15.745Z,100862.19
2023-02-04T00:56:43.144Z,100871.00
2023-02-04T00:59:10.864Z,100886.97
2023-02-04T01:01:38.445Z,100904.00
2023-02-04T01:04:07.166Z,100910.84
2023-02-04T01:06:34.451Z,100909.13
2023-02-04T01:09:02.305Z,100909.94
2023-02-04T01:11:30.069Z,100938.59
2023-02-04T01:13:57.481Z,100923.84
2023-02-04T01:16:24.775Z,100940.72
2023-02-04T01:18:53.203Z,100958.25
2023-02-04T01:21:21.821Z,100952.22
2023-02-04T01:23:50.071Z,100950.78
2023-02-04T01:26:17.415Z,100971.41
2023-02-04T01:28:44.748Z,100969.84
2023-02-04T01:31:12.489Z,100971.81
2023-02-04T01:33:39.869Z,100979.13
2023-02-04T01:36:07.505Z,100995.69
2023-02-04T01:38:36.101Z,101007.41
2023-02-04T01:41:04.077Z,101009.31
2023-02-04T01:43:31.721Z,101014.19
2023-02-04T01:45:59.691Z,101034.00
2023-02-04T01:48:27.105Z,101047.78
2023-02-04T01:50:58.131Z,101053.25
2023-02-04T01:53:26.497Z,101067.97
2023-02-04T01:55:55.099Z,101066.00
2023-02-04T01:58:22.374Z,101063.97
2023-02-04T02:00:49.825Z,101072.03
2023-02-04T02:03:17.112Z,101073.03
2023-02-04T02:05:45.512Z,101077.50
2023-02-04T02:08:13.608Z,101089.78
2023-02-04T02:10:42.105Z,101084.31
2023-02-04T02:13:11.702Z,101090.63
2023-02-04T02:15:39.012Z,101104.88
2023-02-04T02:18:06.338Z,101122.56
2023-02-04T02:20:33.818Z,101121.44
2023-02-04T02:23:03.842Z,101144.41
2023-02-04T02:25:32.837Z,101155.03
2023-02-04T02:28:01.337Z,101140.66
2023-02-04T02:30:30.022Z,101159.94
2023-02-04T02:32:58.203Z,101173.09
2023-02-04T02:35:25.571Z,101172.59
2023-02-04T02:37:52.818Z,101193.94
2023-02-04T02:40:20.794Z,101196.38
2023-02-04T02:42:50.855Z,101209.97
2023-02-04T02:45:21.538Z,101213.47
2023-02-04T02:47:49.053Z,101224.06
2023-02-04T02:50:17.875Z,101230.94
2023-02-04T02:52:45.162Z,101232.75
2023-02-04T02:55:15.118Z,101241.31
2023-02-04T02:57:42.413Z,101233.31
2023-02-04T03:00:16.036Z,101254.97
2023-02-04T03:02:43.612Z,101261.00
2023-02-04T03:05:11.128Z,101267.47
2023-02-04T03:07:38.409Z,101274.22
2023-02-04T03:10:06.177Z,101288.34
2023-02-04T03:12:33.605Z,101294.88
2023-02-04T03:15:00.926Z,101305.28
2023-02-04T03:17:30.200Z,101315.88
2023-02-04T03:19:57.571Z,101314.88
2023-02-04T03:22:25.033Z,101326.69
2023-02-04T03:24:52.337Z,101330.50
2023-02-04T03:27:19.991Z,101342.72
2023-02-04T03:29:47.261Z,101356.72
2023-02-04T03:32:14.568Z,101359.16
2023-02-04T03:34:43.132Z,101359.25
2023-02-04T03:37:10.700Z,101369.00
2023-02-04T03:39:38.002Z,101380.66
2023-02-04T03:42:05.357Z,101403.38
2023-02-04T03:44:32.621Z,101425.22
2023-02-04T03:47:00.139Z,101442.72
2023-02-04T03:49:28.293Z,101434.53
2023-02-04T03:51:56.909Z,101448.81
2023-02-04T03:54:24.221Z,101446.84
2023-02-04T03:56:51.500Z,101466.22
2023-02-04T03:59:18.751Z,101468.91
2023-02-04T04:01:46.101Z,101487.63
2023-02-04T04:04:13.402Z,101485.13
2023-02-04T04:06:40.781Z,101492.28
2023-02-04T04:09:09.345Z,101504.72
2023-02-04T04:11:36.609Z,101512.53
2023-02-04T04:14:03.923Z,101522.25
2023-02-04T04:16:31.172Z,101537.50
2023-02-04T04:18:58.427Z,101547.16
2023-02-04T04:21:25.675Z,101557.53
2023-02-04T04:23:52.942Z,101553.13
2023-02-04T04:26:21.518Z,101576.03
2023-02-04T04:28:48.767Z,101575.88
2023-02-04T04:31:16.180Z,101601.50
2023-02-04T04:33:43.516Z,101581.88
2023-02-04T04:36:10.949Z,101584.66
2023-02-04T04:38:38.180Z,101594.25
2023-02-04T04:41:05.653Z,101600.56
2023-02-04T04:43:34.537Z,101609.28
2023-02-04T04:46:01.790Z,101615.56
2023-02-04T04:48:29.338Z,101616.50
2023-02-04T04:50:56.618Z,101625.31
2023-02-04T04:53:23.883Z,101626.81
2023-02-04T04:55:51.173Z,101642.59
2023-02-04T04:58:18.426Z,101658.41
2023-02-04T05:00:47.183Z,101655.25
2023-02-04T05:03:14.469Z,101664.78
2023-02-04T05:05:41.712Z,101663.84
2023-02-04T05:08:12.966Z,101668.16
2023-02-04T05:10:40.356Z,101672.00
2023-02-04T05:13:07.790Z,101678.22
2023-02-04T05:15:35.072Z,101685.19
2023-02-04T05:18:03.760Z,101682.59
2023-02-04T05:20:31.468Z,101685.25
2023-02-04T05:23:01.072Z,101702.25
2023-02-04T05:25:28.889Z,101682.91
2023-02-04T05:27:56.188Z,101695.31
2023-02-04T05:30:23.521Z,101709.34
2023-02-04T05:32:50.810Z,101714.50
2023-02-04T05:35:19.589Z,101711.13
2023-02-04T05:37:46.851Z,101711.94
2023-02-04T05:40:14.449Z,101730.44
2023-02-04T05:42:41.914Z,101728.63
2023-02-04T05:45:13.214Z,101741.81
2023-02-04T05:47:40.517Z,101746.34
2023-02-04T05:50:08.341Z,101752.69
2023-02-04T05:52:36.998Z,101763.31
2023-02-04T05:55:04.365Z,101768.69
2023-02-04T05:57:31.634Z,101772.28
2023-02-04T05:59:59.317Z,101785.63
2023-02-04T06:02:26.579Z,101783.06
2023-02-04T06:04:53.879Z,101788.44
2023-02-04T06:07:21.167Z,101795.63
2023-02-04T06:09:49.755Z,101808.84
2023-02-04T06:12:17.012Z,101811.38
2023-02-04T06:14:44.300Z,101824.69
2023-02-04T06:17:11.545Z,101831.66
2023-02-04T06:19:38.811Z,101836.09
2023-02-04T06:22:06.081Z,101845.88
2023-02-04T06:24:33.373Z,101855.56
2023-02-04T06:27:01.951Z,101853.84
2023-02-04T06:29:29.217Z,101856.50
2023-02-04T06:31:56.639Z,101864.53
2023-02-04T06:34:23.986Z,101875.16
2023-02-04T06:36:51.233Z,101876.91
2023-02-04T06:39:18.506Z,101891.91
2023-02-04T06:41:45.770Z,101892.78
2023-02-04T06:44:14.342Z,101898.97
2023-02-04T06:46:41.627Z,101903.44
2023-02-04T06:49:08.890Z,101909.53
2023-02-04T06:51:36.158Z,101911.41
2023-02-04T06:54:03.409Z,101920.22
2023-02-04T06:56:30.755Z,101925.47
2023-02-04T06:58:58.034Z,101932.56
2023-02-04T07:01:26.721Z,101942.31
2023-02-04T07:03:54.065Z,101953.78
2023-02-04T07:06:21.340Z,101947.63
2023-02-04T07:08:49.556Z,101957.28
2023-02-04T07:11:16.864Z,101966.94
2023-02-04T07:13:44.130Z,101969.59
2023-02-04T07:16:11.491Z,101972.19
2023-02-04T07:18:40.148Z,101977.56
2023-02-04T07:21:07.403Z,101972.19
2023-02-04T07:23:34.659Z,101976.63
2023-02-04T07:26:02.352Z,101976.56
2023-02-04T07:28:29.684Z,101975.69
2023-02-04T07:30:57.208Z,101977.28
2023-02-04T07:33:24.530Z,101975.38
2023-02-04T07:35:53.104Z,101977.31
2023-02-04T07:38:20.414Z,101976.25
2023-02-04T07:40:47.756Z,101987.69
2023-02-04T07:43:15.210Z,101979.66
2023-02-04T07:45:42.486Z,101991.16
2023-02-04T07:48:10.801Z,101987.56
2023-02-04T07:50:38.144Z,101992.06
2023-02-04T07:53:06.749Z,101999.06
2023-02-04T07:55:34.178Z,102002.41
2023-02-04T07:58:01.465Z,102014.78
2023-02-04T08:00:28.726Z,102022.81
2023-02-04T08:02:56.125Z,102028.06
2023-02-04T08:05:23.477Z,102034.06
2023-02-04T08:07:50.751Z,102041.16
2023-02-04T08:10:21.336Z,102042.06
2023-02-04T08:12:48.813Z,102047.34
2023-02-04T08:15:16.179Z,102047.34
2023-02-04T08:17:43.451Z,102057.88
2023-02-04T08:20:11.614Z,102057.00
2023-02-04T08:22:38.995Z,102061.41
2023-02-04T08:25:06.501Z,102064.09
2023-02-04T08:27:35.109Z,102072.00
2023-02-04T08:30:02.394Z,102075.63
2023-02-04T08:32:31.118Z,102079.97
2023-02-04T08:34:58.434Z,102087.97
2023-02-04T08:37:25.939Z,102098.56
2023-02-04T08:39:53.225Z,102095.75
2023-02-04T08:42:20.570Z,102105.50
2023-02-04T08:44:49.125Z,102105.44
2023-02-04T08:47:16.424Z,102106.41
2023-02-04T08:49:43.717Z,102116.03
2023-02-04T08:52:10.964Z,102110.72
2023-02-04T08:54:38.232Z,102109.81
2023-02-04T08:57:05.544Z,102122.97
2023-02-04T08:59:32.832Z,102127.47
2023-02-04T09:02:02.931Z,102134.56
2023-02-04T09:04:30.508Z,102130.75
2023-02-04T09:06:57.749Z,102132.50
2023-02-04T09:09:26.369Z,102132.53
2023-02-04T09:11:53.822Z,102133.47
2023-02-04T09:14:21.108Z,102145.91
2023-02-04T09:16:49.085Z,102147.53
2023-02-04T09:19:23.830Z,102153.72
2023-02-04T09:21:51.097Z,102163.44
2023-02-04T09:24:18.366Z,102163.41
2023-02-04T09:26:45.642Z,102160.56
2023-02-04T09:29:12.894Z,102152.47
2023-02-04T09:31:40.254Z,102158.59
2023-02-04T09:34:07.538Z,102157.69
2023-02-04T09:36:37.998Z,102166.38
2023-02-04T09:39:05.991Z,102173.69
2023-02-04T09:41:33.815Z,102171.66
2023-02-04T09:44:01.479Z,102183.97
2023-02-04T09:46:29.387Z,102183.88
2023-02-04T09:48:56.662Z,102187.66
2023-02-04T09:51:26.117Z,102189.44
2023-02-04T09:53:55.770Z,102194.97
2023-02-04T09:56:23.102Z,102196.63
2023-02-04T09:58:50.761Z,102196.63
2023-02-04T10:01:18.896Z,102205.44
2023-02-04T10:03:47.447Z,102212.22
2023-02-04T10:06:15.269Z,102211.28
2023-02-04T10:08:43.103Z,102216.78
2023-02-04T10:11:12.085Z,102216.59
2023-02-04T10:13:42.515Z,102218.22
2023-02-04T10:16:14.113Z,102216.84
2023-02-04T10:18:41.520Z,102221.31
2023-02-04T10:21:14.017Z,102224.88
2023-02-04T10:23:41.791Z,102223.91
2023-02-04T10:26:11.108Z,102221.97
2023-02-04T10:28:41.965Z,102224.44
2023-02-04T10:31:27.226Z,102224.44
2023-02-04T10:34:03.022Z,102232.47
2023-02-04T10:36:30.371Z,102225.56
2023-02-04T10:39:00.923Z,102229.97
2023-02-04T10:41:28.483Z,102224.56
2023-02-04T10:44:07.126Z,102223.78
2023-02-04T10:46:34.439Z,102224.75
2023-02-04T10:49:01.846Z,102227.22
2023-02-04T10:51:29.183Z,102228.19
2023-02-04T10:54:14.311Z,102242.38
2023-02-04T10:56:41.791Z,102236.91
2023-02-04T10:59:16.868Z,102235.28
2023-02-04T11:01:44.236Z,102245.78
2023-02-04T11:04:11.587Z,102236.00
2023-02-04T11:06:38.884Z,102236.28
2023-02-04T11:09:06.232Z,102233.53
2023-02-04T11:11:33.525Z,102229.53
2023-02-04T11:14:03.159Z,102231.91
2023-02-04T11:16:33.135Z,102233.44
2023-02-04T11:19:01.548Z,102236.81
2023-02-04T11:21:30.505Z,102242.28
2023-02-04T11:24:05.582Z,102237.63
2023-02-04T11:26:33.998Z,102238.53
2023-02-04T11:29:23.775Z,102248.50
2023-02-04T11:32:00.335Z,102240.34
2023-02-04T11:34:32.868Z,102247.44
2023-02-04T11:37:05.842Z,102244.78
2023-02-04T11:39:35.018Z,102251.03
2023-02-04T11:42:02.311Z,102254.66
2023-02-04T11:44:29.609Z,102255.63
2023-02-04T11:46:58.373Z,102254.66
2023-02-04T11:49:27.783Z,102249.97
2023-02-04T11:52:04.421Z,102253.38
2023-02-04T11:54:31.674Z,102248.31
2023-02-04T11:57:01.152Z,102247.81
2023-02-04T11:59:28.486Z,102259.25
2023-02-04T12:02:04.234Z,102259.41
2023-02-04T12:04:32.836Z,102250.78
2023-02-04T12:07:03.276Z,102260.81
2023-02-04T12:09:31.602Z,102255.97
2023-02-04T12:11:59.558Z,102262.28
2023-02-04T12:14:30.471Z,102264.28
2023-02-04T12:16:57.976Z,102264.84
2023-02-04T12:19:27.568Z,102266.59
2023-02-04T12:21:56.490Z,102256.44
2023-02-04T12:24:25.491Z,102259.06
2023-02-04T12:26:52.781Z,102276.25
2023-02-04T12:29:20.122Z,102278.28
2023-02-04T12:31:47.458Z,102276.38
2023-02-04T12:34:16.707Z,102271.94
2023-02-04T12:36:44.012Z,102270.13
2023-02-04T12:39:12.606Z,102271.75
2023-02-04T12:41:39.891Z,102264.59
2023-02-04T12:44:07.176Z,102269.13
2023-02-04T12:46:34.538Z,102272.97
2023-02-04T12:49:01.844Z,102273.94
2023-02-04T12:51:29.438Z,102276.31
2023-02-04T12:53:56.737Z,102271.91
2023-02-04T12:56:25.371Z,102272.50
2023-02-04T12:58:52.672Z,102272.59
2023-02-04T13:01:19.941Z,102268.13
2023-02-04T13:03:47.214Z,102276.06
2023-02-04T13:06:14.509Z,102280.25
2023-02-04T13:08:41.830Z,102276.00
2023-02-04T13:11:09.130Z,102285.72
2023-02-04T13:13:37.710Z,102278.31
2023-02-04T13:16:05.216Z,102281.91
2023-02-04T13:18:33.910Z,102284.28
2023-02-04T13:21:01.696Z,102276.88
2023-02-04T13:23:28.946Z,102278.47
2023-02-04T13:25:56.204Z,102281.19
2023-02-04T13:28:23.776Z,102287.31
2023-02-04T13:30:52.503Z,102283.56
2023-02-04T13:33:19.794Z,102286.03
2023-02-04T13:35:47.070Z,102289.31
2023-02-04T13:38:14.352Z,102296.41
2023-02-04T13:40:41.634Z,102277.59
2023-02-04T13:43:08.901Z,102284.56
2023-02-04T13:45:38.523Z,102283.84
2023-02-04T13:48:07.124Z,102298.97
2023-02-04T13:50:34.703Z,102304.16
2023-02-04T13:53:02.149Z,102299.63
2023-02-04T13:55:29.460Z,102300.34
2023-02-04T13:57:56.905Z,102297.69
2023-02-04T14:00:24.275Z,102301.78
2023-02-04T14:02:51.539Z,102297.25
2023-02-04T14:05:20.102Z,102301.16
2023-02-04T14:07:47.381Z,102298.50
2023-02-04T14:10:14.684Z,102293.16
2023-02-04T14:12:42.619Z,102298.34
2023-02-04T14:15:10.141Z,102300.13
2023-02-04T14:17:37.386Z,102293.88
2023-02-04T14:20:05.492Z,102301.72
2023-02-04T14:22:34.117Z,102307.84
2023-02-04T14:25:01.577Z,102310.63
2023-02-04T14:27:28.842Z,102308.66
2023-02-04T14:29:56.112Z,102312.25
2023-02-04T14:32:23.542Z,102303.63
2023-02-04T14:34:50.786Z,102311.13
2023-02-04T14:37:18.044Z,102312.25
2023-02-04T14:39:46.628Z,102313.25
2023-02-04T14:42:13.968Z,102311.97
2023-02-04T14:44:41.228Z,102315.00
2023-02-04T14:47:08.781Z,102320.38
2023-02-04T14:49:37.915Z,102314.94
2023-02-04T14:52:05.353Z,102309.81
2023-02-04T14:54:32.633Z,102309.91
2023-02-04T14:57:01.220Z,102307.41
2023-02-04T14:59:28.569Z,102317.22
2023-02-04T15:01:55.881Z,102310.28
2023-02-04T15:04:23.167Z,102312.94
2023-02-04T15:06:53.871Z,102309.41
2023-02-04T15:09:21.136Z,102317.91
2023-02-04T15:11:48.450Z,102305.69
2023-02-04T15:14:17.034Z,102303.84
2023-02-04T15:16:47.877Z,102311.00
2023-02-04T15:19:15.798Z,102312.00
2023-02-04T15:21:43.095Z,102313.00
2023-02-04T15:24:10.397Z,102307.66
2023-02-04T15:26:37.745Z,102296.13
2023-02-04T15:29:05.527Z,102305.03
2023-02-04T15:31:34.241Z,102302.44
2023-02-04T15:34:01.630Z,102305.16
2023-02-04T15:36:28.899Z,102313.13
2023-02-04T15:38:56.169Z,102308.78
2023-02-04T15:41:23.764Z,102308.84
2023-02-04T15:43:51.046Z,102315.16
2023-02-04T15:46:18.618Z,102319.66
2023-02-04T15:48:47.247Z,102323.38
2023-02-04T15:51:14.516Z,102324.38
2023-02-04T15:53:41.808Z,102322.59
2023-02-04T15:56:09.391Z,102328.00
2023-02-04T15:58:36.765Z,102335.19
2023-02-04T16:01:04.081Z,102334.22
2023-02-04T16:03:31.425Z,102338.69
2023-02-04T16:06:00.720Z,102342.13
2023-02-04T16:08:28.643Z,102344.81
2023-02-04T16:10:59.451Z,102348.41
2023-02-04T16:13:26.696Z,102354.81
2023-02-04T16:15:53.992Z,102352.25
2023-02-04T16:18:21.334Z,102347.03
2023-02-04T16:20:48.595Z,102356.72
2023-02-04T16:23:17.179Z,102365.59
2023-02-04T16:25:44.462Z,102363.84
2023-02-04T16:28:11.790Z,102363.00
2023-02-04T16:30:39.634Z,102373.69
2023-02-04T16:33:07.729Z,102364.81
2023-02-04T16:35:55.890Z,102371.03
2023-02-04T16:38:24.504Z,102371.88
2023-02-04T16:40:51.805Z,102384.34
2023-02-04T16:43:19.280Z,102381.69
2023-02-04T16:45:46.618Z,102376.31
2023-02-04T16:48:13.907Z,102376.41
2023-02-04T16:50:41.174Z,102375.56
2023-02-04T16:53:10.398Z,102389.69
2023-02-04T16:55:39.684Z,102395.88
2023-02-04T16:58:06.952Z,102404.75
2023-02-04T17:00:34.421Z,102403.03
2023-02-04T17:03:01.772Z,102405.69
2023-02-04T17:05:29.052Z,102406.63
2023-02-04T17:07:58.350Z,102404.84
2023-02-04T17:10:39.797Z,102407.50
2023-02-04T17:13:08.420Z,102401.31
2023-02-04T17:15:35.737Z,102400.47
2023-02-04T17:18:03.021Z,102400.50
2023-02-04T17:20:30.309Z,102406.69
2023-02-04T17:22:57.618Z,102406.72
2023-02-04T17:25:24.890Z,102418.22
2023-02-04T17:27:54.427Z,102416.41
2023-02-04T17:30:23.217Z,102422.63
2023-02-04T17:32:50.705Z,102419.97
2023-02-04T17:35:18.201Z,102428.81
2023-02-04T17:37:45.496Z,102427.03
2023-02-04T17:40:13.611Z,102431.47
2023-02-04T17:42:40.878Z,102423.50
2023-02-04T17:45:10.391Z,102427.03
2023-02-04T17:47:39.258Z,102421.75
2023-02-04T17:50:07.553Z,102415.53
2023-02-04T17:52:35.465Z,102416.47
2023-02-04T17:55:07.226Z,102423.50
2023-02-04T17:57:34.502Z,102434.13
2023-02-04T18:00:02.092Z,102433.25
2023-02-04T18:02:30.901Z,102432.34
2023-02-04T18:05:01.573Z,102434.09
2023-02-04T18:07:28.877Z,102433.22
2023-02-04T18:10:01.864Z,102432.34
2023-02-04T18:12:29.146Z,102431.47
2023-02-04T18:14:56.521Z,102425.28
2023-02-04T18:17:24.418Z,102439.41
2023-02-04T18:19:51.868Z,102442.03
2023-02-04T18:22:22.643Z,102441.16
2023-02-04T18:24:50.126Z,102438.50
2023-02-04T18:27:19.491Z,102440.28
2023-02-04T18:29:48.532Z,102431.44
2023-02-04T18:32:17.676Z,102438.53
2023-02-04T18:34:46.199Z,102447.34
2023-02-04T18:37:33.856Z,102435.81
2023-02-04T18:40:22.255Z,102440.25
2023-02-04T18:42:49.922Z,102433.19
2023-02-04T18:45:23.574Z,102431.44
2023-02-04T18:47:50.852Z,102433.19
2023-02-04T18:50:23.546Z,102423.50
2023-02-04T18:52:52.149Z,102425.28
2023-02-04T18:55:23.854Z,102433.19
2023-02-04T18:57:51.136Z,102427.03
2023-02-04T19:00:25.306Z,102421.72
2023-02-04T19:02:55.321Z,102428.78
2023-02-04T19:05:35.470Z,102429.66
2023-02-04T19:08:18.369Z,102427.94
2023-02-04T19:10:45.940Z,102436.72
2023-02-04T19:13:17.860Z,102442.91
2023-02-04T19:15:45.514Z,102448.19
2023-02-04T19:18:23.518Z,102439.38
2023-02-04T19:20:50.957Z,102446.38
2023-02-04T19:23:23.314Z,102447.28
2023-02-04T19:25:51.318Z,102442.91
2023-02-04T19:28:28.956Z,102448.19
2023-02-04T19:31:00.587Z,102454.34
2023-02-04T19:33:28.809Z,102455.19
2023-02-04T19:35:59.334Z,102462.31
2023-02-04T19:38:37.654Z,102462.25
2023-02-04T19:41:20.546Z,102466.69
2023-02-04T19:43:47.835Z,102464.97
2023-02-04T19:46:20.469Z,102467.63
2023-02-04T19:48:47.913Z,102474.66
2023-02-04T19:51:23.578Z,102464.09
2023-02-04T19:53:53.802Z,102477.28
2023-02-04T19:56:28.790Z,102474.66
2023-02-04T19:58:57.500Z,102471.09
2023-02-04T20:01:24.905Z,102480.81
2023-02-04T20:03:52.209Z,102484.31
2023-02-04T20:06:27.518Z,102487.00
2023-02-04T20:09:15.890Z,102486.09
2023-02-04T20:11:51.466Z,102489.59
2023-02-04T20:14:21.944Z,102494.88
2023-02-04T20:16:51.288Z,102485.97
2023-02-04T20:19:19.576Z,102500.94
2023-02-04T20:21:52.291Z,102504.34
2023-02-04T20:24:19.537Z,102506.19
2023-02-04T20:26:48.139Z,102509.69
2023-02-04T20:29:19.763Z,102514.97
2023-02-04T20:31:47.086Z,102520.13
2023-02-04T20:34:18.355Z,102516.72
2023-02-04T20:36:46.767Z,102529.88
2023-02-04T20:39:25.340Z,102530.75
2023-02-04T20:41:53.934Z,102534.25
2023-02-04T20:44:23.782Z,102537.69
2023-02-04T20:46:51.106Z,102535.91
2023-02-04T20:49:21.419Z,102543.84
2023-02-04T20:51:48.690Z,102550.03
2023-02-04T20:54:17.309Z,102549.25
2023-02-04T20:56:44.672Z,102544.03
2023-02-04T20:59:25.051Z,102551.78
2023-02-04T21:01:53.475Z,102552.75
2023-02-04T21:04:23.799Z,102551.03
2023-02-04T21:06:51.760Z,102565.81
2023-02-04T21:09:21.918Z,102567.59
2023-02-04T21:11:49.297Z,102571.22
2023-02-04T21:14:16.552Z,102573.03
2023-02-04T21:16:45.146Z,102574.84
2023-02-04T21:19:12.783Z,102574.63
2023-02-04T21:21:40.059Z,102579.13
2023-02-04T21:24:08.032Z,102582.59
2023-02-04T21:26:35.316Z,102593.88
2023-02-04T21:29:02.561Z,102595.56
2023-02-04T21:31:29.916Z,102586.75
2023-02-04T21:33:58.593Z,102592.00
2023-02-04T21:36:27.672Z,102597.28
2023-02-04T21:38:55.005Z,102598.22
2023-02-04T21:41:22.310Z,102591.81
2023-02-04T21:43:49.959Z,102597.88
2023-02-04T21:46:17.948Z,102601.53
2023-02-04T21:48:45.550Z,102599.53
2023-02-04T21:51:14.540Z,102601.44
2023-02-04T21:53:42.144Z,102600.47
2023-02-04T21:56:10.075Z,102595.25
2023-02-04T21:58:38.427Z,102595.19
2023-02-04T22:01:06.187Z,102593.28
2023-02-04T22:03:33.696Z,102591.69
2023-02-04T22:06:01.017Z,102593.28
2023-02-04T22:08:29.595Z,102588.97
2023-02-04T22:10:56.883Z,102596.03
2023-02-04T22:13:24.155Z,102598.59
2023-02-04T22:15:51.463Z,102597.63
2023-02-04T22:18:20.297Z,102601.34
2023-02-04T22:20:47.599Z,102604.75
2023-02-04T22:23:16.512Z,102609.91
2023-02-04T22:25:45.076Z,102614.25
2023-02-04T22:28:12.376Z,102613.59
2023-02-04T22:30:39.705Z,102614.56
2023-02-04T22:33:07.451Z,102612.88
2023-02-04T22:35:36.822Z,102621.56
2023-02-04T22:38:04.250Z,102617.13
2023-02-04T22:40:31.523Z,102614.53
2023-02-04T22:43:00.077Z,102614.56
2023-02-04T22:45:27.361Z,102613.53
2023-02-04T22:47:54.690Z,102617.72
2023-02-04T22:50:21.935Z,102624.22
2023-02-04T22:52:49.203Z,102610.03
2023-02-04T22:55:16.479Z,102609.06
2023-02-04T22:57:43.733Z,102615.41
2023-02-04T23:00:13.415Z,102625.03
2023-02-04T23:02:40.686Z,102622.53
2023-02-04T23:05:08.056Z,102625.59
2023-02-04T23:07:35.362Z,102623.59
2023-02-04T23:10:02.649Z,102620.91
2023-02-04T23:12:29.911Z,102622.75
2023-02-04T23:14:57.196Z,102619.97
2023-02-04T23:17:25.773Z,102622.72
2023-02-04T23:19:53.051Z,102628.00
2023-02-04T23:22:20.391Z,102633.97
2023-02-04T23:24:49.450Z,102633.94
2023-02-04T23:27:16.713Z,102635.22
2023-02-04T23:29:44.012Z,102643.72
2023-02-04T23:32:11.299Z,102640.31
2023-02-04T23:34:39.890Z,102652.53
2023-02-04T23:37:07.182Z,102647.09
2023-02-04T23:39:34.498Z,102655.03
2023-02-04T23:42:01.875Z,102654.19
2023-02-04T23:44:29.131Z,102649.78
2023-02-04T23:46:56.531Z,102650.00
2023-02-04T23:49:23.806Z,102645.44
2023-02-04T23:51:52.441Z,102643.72
2023-02-04T23:54:19.765Z,102637.31
2023-02-04T23:56:47.140Z,102641.59
2023-02-04T23:59:14.397Z,102630.97
